createdAt,value
2023-04-18T00:00:35.088Z,8.20
2023-04-18T00:03:04.013Z,8.20
2023-04-18T00:05:31.735Z,8.20
2023-04-18T00:07:58.664Z,8.20
2023-04-18T00:10:25.933Z,8.10
2023-04-18T00:12:52.902Z,8.10
2023-04-18T00:15:19.913Z,8.10
2023-04-18T00:17:48.390Z,8.10
2023-04-18T00:20:15.462Z,8.10
2023-04-18T00:22:43.041Z,8.10
2023-04-18T00:25:11.246Z,8.00
2023-04-18T00:27:39.261Z,8.10
2023-04-18T00:30:07.281Z,8.00
2023-04-18T00:32:39.979Z,8.00
2023-04-18T00:35:07.354Z,8.00
2023-04-18T00:37:34.363Z,8.00
2023-04-18T00:40:01.504Z,8.00
2023-04-18T00:42:29.443Z,8.00
2023-04-18T00:44:56.512Z,8.00
2023-04-18T00:47:23.590Z,8.00
2023-04-18T00:49:50.713Z,8.10
2023-04-18T00:52:18.582Z,8.10
2023-04-18T00:54:47.380Z,8.10
2023-04-18T00:57:14.977Z,8.10
2023-04-18T00:59:42.929Z,8.10
2023-04-18T01:02:10.007Z,8.10
2023-04-18T01:04:37.390Z,8.10
2023-04-18T01:07:04.881Z,8.10
2023-04-18T01:09:32.016Z,8.10
2023-04-18T01:11:58.994Z,8.10
2023-04-18T01:14:25.957Z,8.10
2023-04-18T01:16:53.361Z,8.10
2023-04-18T01:19:20.835Z,8.10
2023-04-18T01:21:48.044Z,8.10
2023-04-18T01:24:16.884Z,8.10
2023-04-18T01:26:45.514Z,8.00
2023-04-18T01:29:12.594Z,8.00
2023-04-18T01:31:40.912Z,8.10
2023-04-18T01:34:08.446Z,8.10
2023-04-18T01:36:36.172Z,8.10
2023-04-18T01:39:03.565Z,8.10
2023-04-18T01:41:32.909Z,8.10
2023-04-18T01:44:00.482Z,8.10
2023-04-18T01:46:28.463Z,8.00
2023-04-18T01:48:56.154Z,8.10
2023-04-18T01:51:23.238Z,8.10
2023-04-18T01:53:50.557Z,8.10
2023-04-18T01:56:17.516Z,8.00
2023-04-18T01:58:44.504Z,8.00
2023-04-18T02:01:13.109Z,8.00
2023-04-18T02:03:40.470Z,8.00
2023-04-18T02:06:07.920Z,8.00
2023-04-18T02:08:36.034Z,8.00
2023-04-18T02:11:05.410Z,8.00
2023-04-18T02:13:32.950Z,8.00
2023-04-18T02:16:00.109Z,7.90
2023-04-18T02:18:27.338Z,7.90
2023-04-18T02:20:54.572Z,8.00
2023-04-18T02:23:22.738Z,7.90
2023-04-18T02:25:50.850Z,7.90
2023-04-18T02:28:17.946Z,7.90
2023-04-18T02:30:44.944Z,7.90
2023-04-18T02:33:11.960Z,7.90
2023-04-18T02:35:40.747Z,7.80
2023-04-18T02:38:09.211Z,7.80
2023-04-18T02:40:36.228Z,7.80
2023-04-18T02:43:03.300Z,7.80
2023-04-18T02:45:30.539Z,7.80
2023-04-18T02:47:59.820Z,7.70
2023-04-18T02:50:27.175Z,7.70
2023-04-18T02:52:56.008Z,7.70
2023-04-18T02:55:26.972Z,7.70
2023-04-18T02:57:58.015Z,7.70
2023-04-18T03:00:55.496Z,7.60
2023-04-18T03:03:41.395Z,7.60
2023-04-18T03:06:22.567Z,7.60
2023-04-18T03:08:49.656Z,7.50
2023-04-18T03:11:16.988Z,7.50
2023-04-18T03:13:44.563Z,7.50
2023-04-18T03:16:12.302Z,7.50
2023-04-18T03:18:40.009Z,7.40
2023-04-18T03:21:07.265Z,7.40
2023-04-18T03:23:35.081Z,7.40
2023-04-18T03:26:06.077Z,7.40
2023-04-18T03:28:35.025Z,7.40
2023-04-18T03:31:02.125Z,7.40
2023-04-18T03:33:29.951Z,7.40
2023-04-18T03:36:06.873Z,7.40
2023-04-18T03:38:34.061Z,7.30
2023-04-18T03:41:01.153Z,7.30
2023-04-18T03:43:33.576Z,7.30
2023-04-18T03:46:01.133Z,7.30
2023-04-18T03:48:29.130Z,7.20
2023-04-18T03:50:59.840Z,7.20
2023-04-18T03:53:26.915Z,7.20
2023-04-18T03:55:56.327Z,7.20
2023-04-18T03:58:29.229Z,7.20
2023-04-18T04:00:56.334Z,7.20
2023-04-18T04:03:23.364Z,7.10
2023-04-18T04:05:50.534Z,7.10
2023-04-18T04:08:17.616Z,7.00
2023-04-18T04:10:45.587Z,7.10
2023-04-18T04:13:12.707Z,7.00
2023-04-18T04:15:41.302Z,7.00
2023-04-18T04:18:10.617Z,7.00
2023-04-18T04:20:41.717Z,6.90
2023-04-18T04:23:13.245Z,6.90
2023-04-18T04:25:41.997Z,7.00
2023-04-18T04:28:17.959Z,6.90
2023-04-18T04:30:53.912Z,6.90
2023-04-18T04:33:22.000Z,6.90
2023-04-18T04:35:49.829Z,6.90
2023-04-18T04:38:20.080Z,6.90
2023-04-18T04:40:48.179Z,6.90
2023-04-18T04:43:16.487Z,6.90
2023-04-18T04:45:45.512Z,6.90
2023-04-18T04:48:12.599Z,6.90
2023-04-18T04:50:41.832Z,6.80
2023-04-18T04:53:11.896Z,6.80
2023-04-18T04:55:39.337Z,6.80
2023-04-18T04:58:06.671Z,6.80
2023-04-18T05:00:57.599Z,6.80
2023-04-18T05:03:24.843Z,6.80
2023-04-18T05:05:53.955Z,6.70
2023-04-18T05:08:21.011Z,6.70
2023-04-18T05:10:49.744Z,6.70
2023-04-18T05:13:16.937Z,6.70
2023-04-18T05:15:44.211Z,6.70
2023-04-18T05:18:11.405Z,6.60
2023-04-18T05:20:38.366Z,6.70
2023-04-18T05:23:05.475Z,6.60
2023-04-18T05:25:33.666Z,6.60
2023-04-18T05:28:01.269Z,6.60
2023-04-18T05:30:28.342Z,6.60
2023-04-18T05:32:55.387Z,6.60
2023-04-18T05:35:22.434Z,6.60
2023-04-18T05:37:49.483Z,6.60
2023-04-18T05:40:17.649Z,6.60
2023-04-18T05:42:44.684Z,6.60
2023-04-18T05:45:12.113Z,6.60
2023-04-18T05:47:39.161Z,6.60
2023-04-18T05:50:07.366Z,6.60
2023-04-18T05:52:34.484Z,6.60
2023-04-18T05:55:01.451Z,6.60
2023-04-18T05:57:28.481Z,6.60
2023-04-18T05:59:55.845Z,6.60
2023-04-18T06:02:23.126Z,6.70
2023-04-18T06:04:50.365Z,6.70
2023-04-18T06:07:17.706Z,6.70
2023-04-18T06:09:44.678Z,6.80
2023-04-18T06:12:11.728Z,6.90
2023-04-18T06:14:38.772Z,6.90
2023-04-18T06:17:07.379Z,6.90
2023-04-18T06:19:34.341Z,6.90
2023-04-18T06:22:01.638Z,7.00
2023-04-18T06:24:30.176Z,7.10
2023-04-18T06:26:58.359Z,7.20
2023-04-18T06:29:28.135Z,7.30
2023-04-18T06:31:55.239Z,7.30
2023-04-18T06:34:22.328Z,7.40
2023-04-18T06:36:49.616Z,7.40
2023-04-18T06:39:16.595Z,7.50
2023-04-18T06:41:43.581Z,7.50
2023-04-18T06:44:10.625Z,7.60
2023-04-18T06:46:37.820Z,7.60
2023-04-18T06:49:04.794Z,7.70
2023-04-18T06:51:31.848Z,7.70
2023-04-18T06:53:58.736Z,7.80
2023-04-18T06:56:26.442Z,7.90
2023-04-18T06:58:53.505Z,7.90
2023-04-18T07:01:21.003Z,7.90
2023-04-18T07:03:48.148Z,7.90
2023-04-18T07:06:15.713Z,8.00
2023-04-18T07:08:42.740Z,8.00
2023-04-18T07:11:13.237Z,8.00
2023-04-18T07:13:40.322Z,8.10
2023-04-18T07:16:09.353Z,8.10
2023-04-18T07:18:38.323Z,8.20
2023-04-18T07:21:09.401Z,8.20
2023-04-18T07:23:37.288Z,8.30
2023-04-18T07:26:05.850Z,8.40
2023-04-18T07:28:33.568Z,8.40
2023-04-18T07:31:01.319Z,8.40
2023-04-18T07:33:31.708Z,8.50
2023-04-18T07:35:58.911Z,8.50
2023-04-18T07:38:26.105Z,8.60
2023-04-18T07:41:00.353Z,8.70
2023-04-18T07:43:27.592Z,8.70
2023-04-18T07:45:54.874Z,8.70
2023-04-18T07:48:28.146Z,8.80
2023-04-18T07:50:55.261Z,8.80
2023-04-18T07:53:22.203Z,8.90
2023-04-18T07:55:49.999Z,8.90
2023-04-18T07:58:17.302Z,9.00
2023-04-18T08:00:44.936Z,9.10
2023-04-18T08:03:13.000Z,9.10
2023-04-18T08:05:41.958Z,9.10
2023-04-18T08:08:11.198Z,9.20
2023-04-18T08:10:38.333Z,9.20
2023-04-18T08:13:06.371Z,9.30
2023-04-18T08:15:34.293Z,9.30
2023-04-18T08:18:01.852Z,9.40
2023-04-18T08:20:29.076Z,9.40
2023-04-18T08:25:26.171Z,9.60
2023-04-18T08:27:53.108Z,9.70
2023-04-18T08:30:20.311Z,9.80
2023-04-18T08:32:47.378Z,9.90
2023-04-18T08:35:14.379Z,9.90
2023-04-18T08:37:41.524Z,10.00
2023-04-18T08:40:08.956Z,10.00
2023-04-18T08:42:39.790Z,10.10
2023-04-18T08:45:07.566Z,10.20
2023-04-18T08:47:35.635Z,10.30
2023-04-18T08:50:02.704Z,10.40
2023-04-18T08:52:31.095Z,10.40
2023-04-18T08:54:58.165Z,10.50
2023-04-18T08:57:27.064Z,10.60
2023-04-18T08:59:54.614Z,10.70
2023-04-18T09:02:23.467Z,10.80
2023-04-18T09:04:53.744Z,10.90
2023-04-18T09:07:28.445Z,10.90
2023-04-18T09:09:57.706Z,11.10
2023-04-18T09:12:29.467Z,11.10
2023-04-18T09:15:10.211Z,11.20
2023-04-18T09:17:43.610Z,11.30
2023-04-18T09:20:13.032Z,11.40
2023-04-18T09:22:47.944Z,11.40
2023-04-18T09:25:34.505Z,11.50
2023-04-18T09:28:06.282Z,11.60
2023-04-18T09:30:39.366Z,11.70
2023-04-18T09:33:10.205Z,11.80
2023-04-18T09:35:38.337Z,11.90
2023-04-18T09:38:07.474Z,11.90
2023-04-18T09:40:34.551Z,12.00
2023-04-18T09:43:01.796Z,12.00
2023-04-18T09:45:28.943Z,12.10
2023-04-18T09:47:56.249Z,12.20
2023-04-18T09:50:23.511Z,12.30
2023-04-18T09:52:50.559Z,12.40
2023-04-18T09:55:19.261Z,12.40
2023-04-18T09:57:47.955Z,12.40
2023-04-18T10:00:23.889Z,12.40
2023-04-18T10:02:59.246Z,12.40
2023-04-18T10:05:38.913Z,12.50
2023-04-18T10:08:06.777Z,12.60
2023-04-18T10:10:33.992Z,12.70
2023-04-18T10:13:02.628Z,12.80
2023-04-18T10:15:32.041Z,12.90
2023-04-18T10:18:07.485Z,12.90
2023-04-18T10:20:35.464Z,12.90
2023-04-18T10:23:40.190Z,12.80
2023-04-18T10:26:08.578Z,12.80
2023-04-18T10:29:09.404Z,12.70
2023-04-18T10:31:39.370Z,12.70
2023-04-18T10:34:07.276Z,12.60
2023-04-18T10:36:34.468Z,12.70
2023-04-18T10:39:19.935Z,12.70
2023-04-18T10:41:51.119Z,12.70
2023-04-18T10:44:20.688Z,12.80
2023-04-18T10:46:53.448Z,12.80
2023-04-18T10:49:23.940Z,12.80
2023-04-18T10:51:54.182Z,12.80
2023-04-18T10:54:25.513Z,12.90
2023-04-18T10:56:56.899Z,12.80
2023-04-18T10:59:25.387Z,12.90
2023-04-18T11:01:57.719Z,12.90
2023-04-18T11:04:32.187Z,12.90
2023-04-18T11:07:01.412Z,13.00
2023-04-18T11:09:28.380Z,13.10
2023-04-18T11:12:09.604Z,13.20
2023-04-18T11:14:51.972Z,13.30
2023-04-18T11:17:36.015Z,13.40
2023-04-18T11:20:09.286Z,13.40
2023-04-18T11:23:00.551Z,13.40
2023-04-18T11:25:36.446Z,13.50
2023-04-18T11:28:05.076Z,13.50
2023-04-18T11:30:39.632Z,13.70
2023-04-18T11:33:11.761Z,13.70
2023-04-18T11:35:43.099Z,13.80
2023-04-18T11:38:12.960Z,13.90
2023-04-18T11:40:46.894Z,13.90
2023-04-18T11:43:28.725Z,14.00
2023-04-18T11:46:00.005Z,14.00
2023-04-18T11:48:41.815Z,14.00
2023-04-18T11:51:30.217Z,14.10
2023-04-18T11:53:57.285Z,14.10
2023-04-18T11:56:24.259Z,14.10
2023-04-18T11:58:51.500Z,14.10
2023-04-18T12:01:25.705Z,14.10
2023-04-18T12:04:05.820Z,14.10
2023-04-18T12:06:49.941Z,14.20
2023-04-18T12:09:17.719Z,14.20
2023-04-18T12:11:56.285Z,14.30
2023-04-18T12:14:23.412Z,14.30
2023-04-18T12:16:51.013Z,14.40
2023-04-18T12:19:20.470Z,14.40
2023-04-18T12:22:01.685Z,14.50
2023-04-18T12:24:32.201Z,14.60
2023-04-18T12:26:59.930Z,14.60
2023-04-18T12:29:28.810Z,14.70
2023-04-18T12:31:56.711Z,14.70
2023-04-18T12:34:23.878Z,14.80
2023-04-18T12:36:51.030Z,14.90
2023-04-18T12:39:17.997Z,14.90
2023-04-18T12:41:45.029Z,15.00
2023-04-18T12:44:12.536Z,15.10
2023-04-18T12:46:39.943Z,15.20
2023-04-18T12:49:06.921Z,15.30
2023-04-18T12:51:33.932Z,15.30
2023-04-18T12:54:00.948Z,15.40
2023-04-18T12:56:27.935Z,15.50
2023-04-18T12:58:54.890Z,15.50
2023-04-18T13:01:22.209Z,15.50
2023-04-18T13:03:56.750Z,15.60
2023-04-18T13:06:31.633Z,15.60
2023-04-18T13:08:58.905Z,15.60
2023-04-18T13:11:29.032Z,15.60
2023-04-18T13:13:56.106Z,15.60
2023-04-18T13:16:23.096Z,15.70
2023-04-18T13:18:50.135Z,15.60
2023-04-18T13:21:17.266Z,15.70
2023-04-18T13:23:44.265Z,15.60
2023-04-18T13:26:11.227Z,15.60
2023-04-18T13:28:38.353Z,15.60
2023-04-18T13:31:06.070Z,15.60
2023-04-18T13:33:33.013Z,15.60
2023-04-18T13:35:59.973Z,15.70
2023-04-18T13:38:28.069Z,15.80
2023-04-18T13:41:08.430Z,15.80
2023-04-18T13:43:43.082Z,15.70
2023-04-18T13:46:10.281Z,15.70
2023-04-18T13:48:37.400Z,15.60
2023-04-18T13:51:04.729Z,15.50
2023-04-18T13:53:31.666Z,15.50
2023-04-18T13:55:59.157Z,15.50
2023-04-18T13:58:26.128Z,15.40
2023-04-18T14:00:53.846Z,15.40
2023-04-18T14:03:21.175Z,15.40
2023-04-18T14:05:48.441Z,15.40
2023-04-18T14:08:15.451Z,15.40
2023-04-18T14:22:27.119Z,15.40
2023-04-18T14:24:56.140Z,15.80
2023-04-18T14:27:25.471Z,15.80
2023-04-18T14:29:52.592Z,15.80
2023-04-18T14:32:19.600Z,15.90
2023-04-18T14:34:46.561Z,15.90
2023-04-18T14:37:15.574Z,15.90
2023-04-18T14:39:42.775Z,15.90
2023-04-18T14:42:09.800Z,15.90
2023-04-18T14:44:36.956Z,15.90
2023-04-18T14:47:04.050Z,15.90
2023-04-18T14:49:31.091Z,16.00
2023-04-18T14:51:58.123Z,15.90
2023-04-18T14:54:25.320Z,15.90
2023-04-18T14:56:52.962Z,15.90
2023-04-18T14:59:20.244Z,15.90
2023-04-18T15:01:47.579Z,15.80
2023-04-18T15:04:15.048Z,15.70
2023-04-18T15:06:42.444Z,15.70
2023-04-18T15:09:09.448Z,15.70
2023-04-18T15:11:37.098Z,15.70
2023-04-18T15:14:04.154Z,15.80
2023-04-18T15:16:32.102Z,15.80
2023-04-18T15:19:00.436Z,15.80
2023-04-18T15:21:27.462Z,15.70
2023-04-18T15:23:54.487Z,15.70
2023-04-18T15:26:21.422Z,15.70
2023-04-18T15:28:48.710Z,15.70
2023-04-18T15:31:16.556Z,15.70
2023-04-18T15:33:43.602Z,15.70
2023-04-18T15:36:10.577Z,15.80
2023-04-18T15:38:37.545Z,15.80
2023-04-18T15:41:04.573Z,15.80
2023-04-18T15:43:31.618Z,15.80
2023-04-18T15:45:58.690Z,15.80
2023-04-18T15:48:25.930Z,15.70
2023-04-18T15:50:52.944Z,15.70
2023-04-18T15:53:20.089Z,15.70
2023-04-18T15:55:47.113Z,15.80
2023-04-18T15:58:14.261Z,15.70
2023-04-18T16:00:41.715Z,15.70
2023-04-18T16:03:10.427Z,15.80
2023-04-18T16:05:37.562Z,15.80
2023-04-18T16:08:04.622Z,15.70
2023-04-18T16:10:31.611Z,15.60
2023-04-18T16:12:59.632Z,15.60
2023-04-18T16:15:26.722Z,15.50
2023-04-18T16:17:54.055Z,15.50
2023-04-18T16:20:21.316Z,15.40
2023-04-18T16:22:48.363Z,15.40
2023-04-18T16:25:15.489Z,15.40
2023-04-18T16:27:43.052Z,15.40
2023-04-18T16:30:10.373Z,15.30
2023-04-18T16:32:40.705Z,15.30
2023-04-18T16:35:10.304Z,15.20
2023-04-18T16:37:38.246Z,15.20
2023-04-18T16:40:06.556Z,15.20
2023-04-18T16:42:33.894Z,15.20
2023-04-18T16:45:02.398Z,15.20
2023-04-18T16:47:30.409Z,15.10
2023-04-18T16:49:57.485Z,15.10
2023-04-18T16:52:24.803Z,15.00
2023-04-18T16:54:52.737Z,14.90
2023-04-18T16:57:19.902Z,14.90
2023-04-18T16:59:47.379Z,14.90
2023-04-18T17:02:15.364Z,14.90
2023-04-18T17:04:42.738Z,14.90
2023-04-18T17:07:09.847Z,14.90
2023-04-18T17:09:36.817Z,14.90
2023-04-18T17:12:03.893Z,14.80
2023-04-18T17:14:30.840Z,14.80
2023-04-18T17:16:57.805Z,14.70
2023-04-18T17:19:24.834Z,14.60
2023-04-18T17:21:51.847Z,14.50
2023-04-18T17:24:18.951Z,14.50
2023-04-18T17:26:46.031Z,14.50
2023-04-18T17:29:13.245Z,14.40
2023-04-18T17:31:40.779Z,14.40
2023-04-18T17:34:07.915Z,14.30
2023-04-18T17:36:34.966Z,14.30
2023-04-18T17:39:07.827Z,14.30
2023-04-18T17:41:38.507Z,14.20
2023-04-18T17:44:07.828Z,14.10
2023-04-18T17:46:34.972Z,14.10
2023-04-18T17:49:02.311Z,14.10
2023-04-18T17:51:29.308Z,14.00
2023-04-18T17:53:56.419Z,14.00
2023-04-18T17:56:23.449Z,14.00
2023-04-18T17:58:50.758Z,14.00
2023-04-18T18:01:19.652Z,13.90
2023-04-18T18:03:47.368Z,13.90
2023-04-18T18:06:15.470Z,13.80
2023-04-18T18:08:43.297Z,13.80
2023-04-18T18:11:10.811Z,13.80
2023-04-18T18:13:40.737Z,13.80
2023-04-18T18:16:19.648Z,13.70
2023-04-18T18:18:58.761Z,13.80
2023-04-18T18:21:42.155Z,13.80
2023-04-18T18:24:35.984Z,13.70
2023-04-18T18:27:14.084Z,13.70
2023-04-18T18:29:53.458Z,13.70
2023-04-18T18:32:22.288Z,13.70
2023-04-18T18:34:49.264Z,13.60
2023-04-18T18:37:16.332Z,13.60
2023-04-18T18:39:43.294Z,13.60
2023-04-18T18:42:10.388Z,13.50
2023-04-18T18:44:37.440Z,13.50
2023-04-18T18:47:04.860Z,13.50
2023-04-18T18:49:31.879Z,13.40
2023-04-18T18:51:59.091Z,13.40
2023-04-18T18:54:26.155Z,13.40
2023-04-18T18:56:53.135Z,13.30
2023-04-18T18:59:20.225Z,13.30
2023-04-18T19:01:47.326Z,13.20
2023-04-18T19:04:14.506Z,13.20
2023-04-18T19:06:42.032Z,13.20
2023-04-18T19:09:09.102Z,13.10
2023-04-18T19:11:36.079Z,13.10
2023-04-18T19:14:03.425Z,13.00
2023-04-18T19:16:30.693Z,13.00
2023-04-18T19:18:57.619Z,13.00
2023-04-18T19:21:24.637Z,13.00
2023-04-18T19:23:51.663Z,12.90
2023-04-18T19:26:18.717Z,12.90
2023-04-18T19:28:45.892Z,12.90
2023-04-18T19:31:12.979Z,12.90
2023-04-18T19:33:40.045Z,12.90
2023-04-18T19:36:07.147Z,12.90
2023-04-18T19:38:34.739Z,12.90
2023-04-18T19:41:01.781Z,12.90
2023-04-18T19:43:28.732Z,12.90
2023-04-18T19:45:55.908Z,12.90
2023-04-18T19:48:22.936Z,12.90
2023-04-18T19:50:50.182Z,12.90
2023-04-18T19:53:18.968Z,12.80
2023-04-18T19:55:46.155Z,12.80
2023-04-18T19:58:46.279Z,12.80
2023-04-18T20:01:15.848Z,12.80
2023-04-18T20:03:43.437Z,12.80
2023-04-18T20:06:11.092Z,12.80
2023-04-18T20:08:44.461Z,12.70
2023-04-18T20:11:13.261Z,12.70
2023-04-18T20:13:41.350Z,12.70
2023-04-18T20:16:09.250Z,12.60
2023-04-18T20:18:41.733Z,12.60
2023-04-18T20:21:09.987Z,12.60
2023-04-18T20:23:37.445Z,12.50
2023-04-18T20:26:04.734Z,12.40
2023-04-18T20:28:32.022Z,12.40
2023-04-18T20:30:59.369Z,12.40
2023-04-18T20:33:26.422Z,12.40
2023-04-18T20:35:54.767Z,12.30
2023-04-18T20:38:25.852Z,12.30
2023-04-18T20:40:54.270Z,12.20
2023-04-18T20:43:21.618Z,12.20
2023-04-18T20:45:51.558Z,12.20
2023-04-18T20:48:18.816Z,12.10
2023-04-18T20:50:51.332Z,12.20
2023-04-18T20:53:26.061Z,12.00
2023-04-18T20:55:53.193Z,12.00
2023-04-18T20:58:20.288Z,12.00
2023-04-18T21:00:48.380Z,12.00
2023-04-18T21:03:16.846Z,11.90
2023-04-18T21:05:44.989Z,11.90
2023-04-18T21:08:12.113Z,11.90
2023-04-18T21:10:39.797Z,11.80
2023-04-18T21:13:06.980Z,11.90
2023-04-18T21:15:35.728Z,11.80
2023-04-18T21:18:02.886Z,11.80
2023-04-18T21:20:30.048Z,11.80
2023-04-18T21:22:57.041Z,11.80
2023-04-18T21:25:24.028Z,11.70
2023-04-18T21:27:51.038Z,11.70
2023-04-18T21:30:18.309Z,11.70
2023-04-18T21:32:47.140Z,11.60
2023-04-18T21:35:14.998Z,11.60
2023-04-18T21:37:42.695Z,11.50
2023-04-18T21:40:10.319Z,11.50
2023-04-18T21:42:37.310Z,11.50
2023-04-18T21:45:06.144Z,11.50
2023-04-18T21:47:33.269Z,11.50
2023-04-18T21:50:00.300Z,11.40
2023-04-18T21:52:27.304Z,11.40
2023-04-18T21:54:54.362Z,11.40
2023-04-18T21:57:21.315Z,11.40
2023-04-18T21:59:48.371Z,11.40
2023-04-18T22:02:15.547Z,11.40
2023-04-18T22:04:42.894Z,11.30
2023-04-18T22:07:11.492Z,11.30
2023-04-18T22:09:38.640Z,11.30
2023-04-18T22:12:05.812Z,11.30
2023-04-18T22:14:32.848Z,11.30
2023-04-18T22:17:01.788Z,11.30
2023-04-18T22:19:29.486Z,11.30
2023-04-18T22:21:56.938Z,11.30
2023-04-18T22:24:25.901Z,11.30
2023-04-18T22:26:53.427Z,11.30
2023-04-18T22:29:20.551Z,11.30
2023-04-18T22:31:47.519Z,11.40
2023-04-18T22:34:14.793Z,11.30
2023-04-18T22:36:43.927Z,11.30
2023-04-18T22:39:12.191Z,11.30
2023-04-18T22:41:39.240Z,11.30
2023-04-18T22:44:06.979Z,11.40
2023-04-18T22:46:33.929Z,11.40
2023-04-18T22:49:00.946Z,11.30
2023-04-18T22:51:28.762Z,11.30
2023-04-18T22:53:56.483Z,11.30
2023-04-18T22:56:23.485Z,11.30
2023-04-18T22:58:50.676Z,11.30
2023-04-18T23:01:17.942Z,11.30
2023-04-18T23:03:45.207Z,11.30
2023-04-18T23:06:12.378Z,11.30
2023-04-18T23:08:39.379Z,11.30
2023-04-18T23:11:06.432Z,11.30
2023-04-18T23:13:33.461Z,11.30
2023-04-18T23:16:00.405Z,11.30
2023-04-18T23:18:30.074Z,11.20
2023-04-18T23:20:57.118Z,11.20
2023-04-18T23:23:24.166Z,11.20
2023-04-18T23:25:52.068Z,11.20
2023-04-18T23:28:19.156Z,11.20
2023-04-18T23:30:47.299Z,11.20
2023-04-18T23:33:14.331Z,11.20
2023-04-18T23:35:41.313Z,11.20
2023-04-18T23:38:08.572Z,11.20
2023-04-18T23:40:35.938Z,11.20
2023-04-18T23:43:03.020Z,11.20
2023-04-18T23:45:29.969Z,11.20
2023-04-18T23:47:57.078Z,11.20
2023-04-18T23:50:24.162Z,11.20
2023-04-18T23:52:51.329Z,11.20
2023-04-18T23:55:18.507Z,11.10
2023-04-18T23:57:45.667Z,11.20
